sensor_id;sensor_type;location;lat;lon;timestamp;P1;durP1;ratioP1;P2;durP2;ratioP2
11531;SDS011;5822;51.000;5.874;2023-05-27T00:00:30;18.00;;;16.90;;
11531;SDS011;5822;51.000;5.874;2023-05-27T00:02:58;17.23;;;16.23;;
11531;SDS011;5822;51.000;5.874;2023-05-27T00:05:25;17.80;;;16.70;;
11531;SDS011;5822;51.000;5.874;2023-05-27T00:07:51;17.10;;;16.10;;
11531;SDS011;5822;51.000;5.874;2023-05-27T00:10:17;18.00;;;16.90;;
11531;SDS011;5822;51.000;5.874;2023-05-27T00:12:43;17.80;;;16.77;;
11531;SDS011;5822;51.000;5.874;2023-05-27T00:15:09;17.30;;;16.30;;
11531;SDS011;5822;51.000;5.874;2023-05-27T00:17:35;17.30;;;16.30;;
11531;SDS011;5822;51.000;5.874;2023-05-27T00:20:01;16.92;;;15.93;;
11531;SDS011;5822;51.000;5.874;2023-05-27T00:22:31;16.90;;;15.93;;
11531;SDS011;5822;51.000;5.874;2023-05-27T00:24:57;17.10;;;16.10;;
11531;SDS011;5822;51.000;5.874;2023-05-27T00:27:23;16.57;;;15.67;;
11531;SDS011;5822;51.000;5.874;2023-05-27T00:29:48;16.33;;;15.40;;
11531;SDS011;5822;51.000;5.874;2023-05-27T00:32:14;17.08;;;16.08;;
11531;SDS011;5822;51.000;5.874;2023-05-27T00:34:39;16.80;;;15.83;;
11531;SDS011;5822;51.000;5.874;2023-05-27T00:37:05;17.30;;;16.30;;
11531;SDS011;5822;51.000;5.874;2023-05-27T00:39:31;17.10;;;16.10;;
11531;SDS011;5822;51.000;5.874;2023-05-27T00:41:57;17.67;;;16.57;;
11531;SDS011;5822;51.000;5.874;2023-05-27T00:44:23;17.23;;;16.23;;
11531;SDS011;5822;51.000;5.874;2023-05-27T00:46:48;17.20;;;16.20;;
11531;SDS011;5822;51.000;5.874;2023-05-27T00:49:14;17.50;;;16.50;;
11531;SDS011;5822;51.000;5.874;2023-05-27T00:51:41;17.52;;;16.50;;
11531;SDS011;5822;51.000;5.874;2023-05-27T00:54:07;17.40;;;16.40;;
11531;SDS011;5822;51.000;5.874;2023-05-27T00:56:34;17.77;;;16.67;;
11531;SDS011;5822;51.000;5.874;2023-05-27T00:59:00;17.88;;;16.77;;
11531;SDS011;5822;51.000;5.874;2023-05-27T01:01:26;17.50;;;16.50;;
11531;SDS011;5822;51.000;5.874;2023-05-27T01:03:53;17.20;;;16.23;;
11531;SDS011;5822;51.000;5.874;2023-05-27T01:09:29;17.27;;;16.27;;
11531;SDS011;5822;51.000;5.874;2023-05-27T01:12:16;16.88;;;15.90;;
11531;SDS011;5822;51.000;5.874;2023-05-27T01:14:51;16.92;;;15.93;;
11531;SDS011;5822;51.000;5.874;2023-05-27T01:17:22;18.35;;;17.15;;
11531;SDS011;5822;51.000;5.874;2023-05-27T01:19:49;17.75;;;16.65;;
11531;SDS011;5822;51.000;5.874;2023-05-27T01:22:16;17.73;;;16.73;;
11531;SDS011;5822;51.000;5.874;2023-05-27T01:24:44;17.65;;;16.55;;
11531;SDS011;5822;51.000;5.874;2023-05-27T01:27:11;17.40;;;16.40;;
11531;SDS011;5822;51.000;5.874;2023-05-27T01:29:37;17.10;;;16.10;;
11531;SDS011;5822;51.000;5.874;2023-05-27T01:32:18;17.20;;;16.20;;
11531;SDS011;5822;51.000;5.874;2023-05-27T01:35:02;17.20;;;16.20;;
11531;SDS011;5822;51.000;5.874;2023-05-27T01:37:37;17.30;;;16.27;;
11531;SDS011;5822;51.000;5.874;2023-05-27T01:40:05;17.50;;;16.45;;
11531;SDS011;5822;51.000;5.874;2023-05-27T01:42:38;17.35;;;16.35;;
11531;SDS011;5822;51.000;5.874;2023-05-27T01:45:05;17.50;;;16.40;;
11531;SDS011;5822;51.000;5.874;2023-05-27T01:47:32;17.42;;;16.33;;
11531;SDS011;5822;51.000;5.874;2023-05-27T01:49:58;17.25;;;16.23;;
11531;SDS011;5822;51.000;5.874;2023-05-27T01:52:25;17.20;;;16.10;;
11531;SDS011;5822;51.000;5.874;2023-05-27T01:54:51;16.75;;;15.85;;
11531;SDS011;5822;51.000;5.874;2023-05-27T01:57:17;16.55;;;15.65;;
11531;SDS011;5822;51.000;5.874;2023-05-27T01:59:43;17.20;;;16.20;;
11531;SDS011;5822;51.000;5.874;2023-05-27T02:02:09;17.77;;;16.67;;
11531;SDS011;5822;51.000;5.874;2023-05-27T02:04:35;17.40;;;16.40;;
11531;SDS011;5822;51.000;5.874;2023-05-27T02:07:01;17.70;;;16.60;;
11531;SDS011;5822;51.000;5.874;2023-05-27T02:09:28;17.60;;;16.50;;
11531;SDS011;5822;51.000;5.874;2023-05-27T02:11:54;16.63;;;15.73;;
11531;SDS011;5822;51.000;5.874;2023-05-27T02:14:20;16.90;;;15.90;;
11531;SDS011;5822;51.000;5.874;2023-05-27T02:16:46;16.80;;;15.90;;
11531;SDS011;5822;51.000;5.874;2023-05-27T02:19:13;17.00;;;16.00;;
11531;SDS011;5822;51.000;5.874;2023-05-27T02:21:39;17.30;;;16.30;;
11531;SDS011;5822;51.000;5.874;2023-05-27T02:24:05;17.42;;;16.42;;
11531;SDS011;5822;51.000;5.874;2023-05-27T02:26:31;17.80;;;16.70;;
11531;SDS011;5822;51.000;5.874;2023-05-27T02:28:57;17.90;;;16.80;;
11531;SDS011;5822;51.000;5.874;2023-05-27T02:31:22;17.50;;;16.50;;
11531;SDS011;5822;51.000;5.874;2023-05-27T02:33:48;17.43;;;16.33;;
11531;SDS011;5822;51.000;5.874;2023-05-27T02:36:14;17.17;;;16.17;;
11531;SDS011;5822;51.000;5.874;2023-05-27T02:38:40;17.58;;;16.58;;
11531;SDS011;5822;51.000;5.874;2023-05-27T02:41:05;17.40;;;16.40;;
11531;SDS011;5822;51.000;5.874;2023-05-27T02:43:31;17.17;;;16.17;;
11531;SDS011;5822;51.000;5.874;2023-05-27T02:45:56;17.10;;;16.10;;
11531;SDS011;5822;51.000;5.874;2023-05-27T02:48:22;17.33;;;16.30;;
11531;SDS011;5822;51.000;5.874;2023-05-27T02:50:48;17.23;;;16.23;;
11531;SDS011;5822;51.000;5.874;2023-05-27T02:53:13;17.40;;;16.30;;
11531;SDS011;5822;51.000;5.874;2023-05-27T02:55:39;16.98;;;16.05;;
11531;SDS011;5822;51.000;5.874;2023-05-27T02:58:05;17.25;;;16.25;;
11531;SDS011;5822;51.000;5.874;2023-05-27T03:00:32;17.30;;;16.30;;
11531;SDS011;5822;51.000;5.874;2023-05-27T03:02:58;17.23;;;16.23;;
11531;SDS011;5822;51.000;5.874;2023-05-27T03:05:23;17.30;;;16.30;;
11531;SDS011;5822;51.000;5.874;2023-05-27T03:07:49;17.95;;;16.80;;
11531;SDS011;5822;51.000;5.874;2023-05-27T03:10:15;17.80;;;16.70;;
11531;SDS011;5822;51.000;5.874;2023-05-27T03:12:41;17.70;;;16.70;;
11531;SDS011;5822;51.000;5.874;2023-05-27T03:15:06;17.73;;;16.73;;
11531;SDS011;5822;51.000;5.874;2023-05-27T03:17:36;17.20;;;16.25;;
11531;SDS011;5822;51.000;5.874;2023-05-27T03:20:02;17.65;;;16.55;;
11531;SDS011;5822;51.000;5.874;2023-05-27T03:22:29;17.55;;;16.45;;
11531;SDS011;5822;51.000;5.874;2023-05-27T03:24:55;17.58;;;16.58;;
11531;SDS011;5822;51.000;5.874;2023-05-27T03:27:21;17.77;;;16.77;;
11531;SDS011;5822;51.000;5.874;2023-05-27T03:29:46;17.88;;;16.77;;
11531;SDS011;5822;51.000;5.874;2023-05-27T03:32:12;17.77;;;16.77;;
11531;SDS011;5822;51.000;5.874;2023-05-27T03:34:38;17.83;;;16.73;;
11531;SDS011;5822;51.000;5.874;2023-05-27T03:37:03;17.58;;;16.58;;
11531;SDS011;5822;51.000;5.874;2023-05-27T03:39:29;17.73;;;16.70;;
11531;SDS011;5822;51.000;5.874;2023-05-27T03:41:55;17.60;;;16.50;;
11531;SDS011;5822;51.000;5.874;2023-05-27T03:44:21;17.58;;;16.48;;
11531;SDS011;5822;51.000;5.874;2023-05-27T03:46:47;17.45;;;16.35;;
11531;SDS011;5822;51.000;5.874;2023-05-27T03:49:12;18.10;;;16.98;;
11531;SDS011;5822;51.000;5.874;2023-05-27T03:51:38;17.70;;;16.60;;
11531;SDS011;5822;51.000;5.874;2023-05-27T03:54:04;17.80;;;16.70;;
11531;SDS011;5822;51.000;5.874;2023-05-27T03:56:29;17.70;;;16.60;;
11531;SDS011;5822;51.000;5.874;2023-05-27T03:58:55;17.90;;;16.80;;
11531;SDS011;5822;51.000;5.874;2023-05-27T04:01:21;17.40;;;16.30;;
11531;SDS011;5822;51.000;5.874;2023-05-27T04:03:47;17.67;;;16.57;;
11531;SDS011;5822;51.000;5.874;2023-05-27T04:06:13;17.52;;;16.42;;
11531;SDS011;5822;51.000;5.874;2023-05-27T04:08:40;17.80;;;16.80;;
11531;SDS011;5822;51.000;5.874;2023-05-27T04:11:06;17.80;;;16.70;;
11531;SDS011;5822;51.000;5.874;2023-05-27T04:13:34;18.55;;;17.35;;
11531;SDS011;5822;51.000;5.874;2023-05-27T04:15:59;18.17;;;17.08;;
11531;SDS011;5822;51.000;5.874;2023-05-27T04:18:25;17.92;;;16.83;;
11531;SDS011;5822;51.000;5.874;2023-05-27T04:20:51;17.87;;;16.77;;
11531;SDS011;5822;51.000;5.874;2023-05-27T04:23:17;18.10;;;17.00;;
11531;SDS011;5822;51.000;5.874;2023-05-27T04:25:43;17.73;;;16.63;;
11531;SDS011;5822;51.000;5.874;2023-05-27T04:28:09;18.17;;;17.08;;
11531;SDS011;5822;51.000;5.874;2023-05-27T04:30:35;17.90;;;16.83;;
11531;SDS011;5822;51.000;5.874;2023-05-27T04:33:01;17.95;;;16.85;;
11531;SDS011;5822;51.000;5.874;2023-05-27T04:35:27;18.60;;;17.50;;
11531;SDS011;5822;51.000;5.874;2023-05-27T04:37:56;18.38;;;17.27;;
11531;SDS011;5822;51.000;5.874;2023-05-27T04:40:24;19.00;;;17.80;;
11531;SDS011;5822;51.000;5.874;2023-05-27T04:42:50;18.58;;;17.48;;
11531;SDS011;5822;51.000;5.874;2023-05-27T04:45:16;18.65;;;17.50;;
11531;SDS011;5822;51.000;5.874;2023-05-27T04:47:42;18.35;;;17.15;;
11531;SDS011;5822;51.000;5.874;2023-05-27T04:50:07;18.55;;;17.35;;
11531;SDS011;5822;51.000;5.874;2023-05-27T04:52:35;18.47;;;17.37;;
11531;SDS011;5822;51.000;5.874;2023-05-27T04:55:07;18.42;;;17.33;;
11531;SDS011;5822;51.000;5.874;2023-05-27T04:57:34;18.77;;;17.58;;
11531;SDS011;5822;51.000;5.874;2023-05-27T05:00:06;18.83;;;17.63;;
11531;SDS011;5822;51.000;5.874;2023-05-27T05:02:35;18.73;;;17.52;;
11531;SDS011;5822;51.000;5.874;2023-05-27T05:05:07;18.95;;;17.75;;
11531;SDS011;5822;51.000;5.874;2023-05-27T05:07:33;18.77;;;17.58;;
11531;SDS011;5822;51.000;5.874;2023-05-27T05:10:03;18.60;;;17.50;;
11531;SDS011;5822;51.000;5.874;2023-05-27T05:12:30;19.60;;;18.30;;
11531;SDS011;5822;51.000;5.874;2023-05-27T05:14:56;19.10;;;17.90;;
11531;SDS011;5822;51.000;5.874;2023-05-27T05:17:22;18.63;;;17.48;;
11531;SDS011;5822;51.000;5.874;2023-05-27T05:19:49;18.67;;;17.48;;
11531;SDS011;5822;51.000;5.874;2023-05-27T05:22:16;18.65;;;17.45;;
11531;SDS011;5822;51.000;5.874;2023-05-27T05:24:47;18.58;;;17.48;;
11531;SDS011;5822;51.000;5.874;2023-05-27T05:27:13;19.15;;;17.95;;
11531;SDS011;5822;51.000;5.874;2023-05-27T05:29:38;19.33;;;18.10;;
11531;SDS011;5822;51.000;5.874;2023-05-27T05:32:04;18.50;;;17.40;;
11531;SDS011;5822;51.000;5.874;2023-05-27T05:34:31;18.27;;;17.17;;
11531;SDS011;5822;51.000;5.874;2023-05-27T05:36:56;18.35;;;17.15;;
11531;SDS011;5822;51.000;5.874;2023-05-27T05:39:22;18.60;;;17.40;;
11531;SDS011;5822;51.000;5.874;2023-05-27T05:41:48;18.50;;;17.40;;
11531;SDS011;5822;51.000;5.874;2023-05-27T05:44:14;17.95;;;16.95;;
11531;SDS011;5822;51.000;5.874;2023-05-27T05:46:41;18.77;;;17.60;;
11531;SDS011;5822;51.000;5.874;2023-05-27T05:49:07;19.20;;;17.90;;
11531;SDS011;5822;51.000;5.874;2023-05-27T05:51:32;19.38;;;18.17;;
11531;SDS011;5822;51.000;5.874;2023-05-27T05:53:58;19.00;;;17.80;;
11531;SDS011;5822;51.000;5.874;2023-05-27T05:56:24;18.70;;;17.60;;
11531;SDS011;5822;51.000;5.874;2023-05-27T05:58:51;18.65;;;17.55;;
11531;SDS011;5822;51.000;5.874;2023-05-27T06:01:17;19.10;;;17.90;;
11531;SDS011;5822;51.000;5.874;2023-05-27T06:03:43;20.88;;;19.58;;
11531;SDS011;5822;51.000;5.874;2023-05-27T06:06:08;21.35;;;20.05;;
11531;SDS011;5822;51.000;5.874;2023-05-27T06:08:34;23.52;;;22.23;;
11531;SDS011;5822;51.000;5.874;2023-05-27T06:11:00;24.73;;;23.33;;
11531;SDS011;5822;51.000;5.874;2023-05-27T06:13:26;24.90;;;23.40;;
11531;SDS011;5822;51.000;5.874;2023-05-27T06:15:51;24.30;;;22.83;;
11531;SDS011;5822;51.000;5.874;2023-05-27T06:18:17;22.00;;;20.80;;
11531;SDS011;5822;51.000;5.874;2023-05-27T06:20:43;33.33;;;31.63;;
11531;SDS011;5822;51.000;5.874;2023-05-27T06:23:08;38.40;;;36.40;;
11531;SDS011;5822;51.000;5.874;2023-05-27T06:25:34;43.25;;;41.10;;
11531;SDS011;5822;51.000;5.874;2023-05-27T06:28:00;36.63;;;34.72;;
11531;SDS011;5822;51.000;5.874;2023-05-27T06:30:26;23.90;;;22.45;;
11531;SDS011;5822;51.000;5.874;2023-05-27T06:32:52;23.95;;;22.55;;
11531;SDS011;5822;51.000;5.874;2023-05-27T06:35:18;22.87;;;21.57;;
11531;SDS011;5822;51.000;5.874;2023-05-27T06:37:43;22.13;;;20.93;;
11531;SDS011;5822;51.000;5.874;2023-05-27T06:40:10;24.50;;;23.20;;
11531;SDS011;5822;51.000;5.874;2023-05-27T06:42:36;23.90;;;22.60;;
11531;SDS011;5822;51.000;5.874;2023-05-27T06:45:02;23.10;;;21.83;;
11531;SDS011;5822;51.000;5.874;2023-05-27T06:47:28;22.95;;;21.75;;
11531;SDS011;5822;51.000;5.874;2023-05-27T06:49:54;23.00;;;21.70;;
11531;SDS011;5822;51.000;5.874;2023-05-27T06:52:20;19.83;;;18.70;;
11531;SDS011;5822;51.000;5.874;2023-05-27T06:54:46;19.50;;;18.30;;
11531;SDS011;5822;51.000;5.874;2023-05-27T06:57:12;19.90;;;18.60;;
11531;SDS011;5822;51.000;5.874;2023-05-27T06:59:38;20.05;;;18.85;;
11531;SDS011;5822;51.000;5.874;2023-05-27T07:02:04;19.00;;;17.90;;
11531;SDS011;5822;51.000;5.874;2023-05-27T07:04:31;18.73;;;17.70;;
11531;SDS011;5822;51.000;5.874;2023-05-27T07:06:57;18.58;;;17.48;;
11531;SDS011;5822;51.000;5.874;2023-05-27T07:09:22;18.80;;;17.70;;
11531;SDS011;5822;51.000;5.874;2023-05-27T07:11:48;18.83;;;17.73;;
11531;SDS011;5822;51.000;5.874;2023-05-27T07:14:14;18.38;;;17.27;;
11531;SDS011;5822;51.000;5.874;2023-05-27T07:16:40;18.55;;;17.45;;
11531;SDS011;5822;51.000;5.874;2023-05-27T07:19:05;18.50;;;17.48;;
11531;SDS011;5822;51.000;5.874;2023-05-27T07:21:31;18.50;;;17.50;;
11531;SDS011;5822;51.000;5.874;2023-05-27T07:23:58;18.42;;;17.33;;
11531;SDS011;5822;51.000;5.874;2023-05-27T07:26:27;18.35;;;17.27;;
11531;SDS011;5822;51.000;5.874;2023-05-27T07:28:53;18.40;;;17.30;;
11531;SDS011;5822;51.000;5.874;2023-05-27T07:31:19;18.50;;;17.40;;
11531;SDS011;5822;51.000;5.874;2023-05-27T07:33:45;18.83;;;17.73;;
11531;SDS011;5822;51.000;5.874;2023-05-27T07:36:10;18.13;;;17.10;;
11531;SDS011;5822;51.000;5.874;2023-05-27T07:38:36;17.85;;;16.85;;
11531;SDS011;5822;51.000;5.874;2023-05-27T07:41:02;18.87;;;17.67;;
11531;SDS011;5822;51.000;5.874;2023-05-27T07:43:27;18.50;;;17.30;;
11531;SDS011;5822;51.000;5.874;2023-05-27T07:45:53;18.30;;;17.20;;
11531;SDS011;5822;51.000;5.874;2023-05-27T07:48:19;17.95;;;16.92;;
11531;SDS011;5822;51.000;5.874;2023-05-27T07:50:44;17.30;;;16.40;;
11531;SDS011;5822;51.000;5.874;2023-05-27T07:53:10;17.60;;;16.60;;
11531;SDS011;5822;51.000;5.874;2023-05-27T07:55:35;17.50;;;16.50;;
11531;SDS011;5822;51.000;5.874;2023-05-27T07:58:01;18.20;;;17.10;;
11531;SDS011;5822;51.000;5.874;2023-05-27T08:00:27;18.07;;;17.07;;
11531;SDS011;5822;51.000;5.874;2023-05-27T08:02:52;18.40;;;17.30;;
11531;SDS011;5822;51.000;5.874;2023-05-27T08:05:18;18.25;;;17.15;;
11531;SDS011;5822;51.000;5.874;2023-05-27T08:07:44;18.42;;;17.38;;
11531;SDS011;5822;51.000;5.874;2023-05-27T08:10:10;17.52;;;16.52;;
11531;SDS011;5822;51.000;5.874;2023-05-27T08:12:36;18.45;;;17.25;;
11531;SDS011;5822;51.000;5.874;2023-05-27T08:15:02;19.40;;;18.10;;
11531;SDS011;5822;51.000;5.874;2023-05-27T08:17:28;18.50;;;17.40;;
11531;SDS011;5822;51.000;5.874;2023-05-27T08:19:53;18.40;;;17.20;;
11531;SDS011;5822;51.000;5.874;2023-05-27T08:22:19;18.27;;;17.17;;
11531;SDS011;5822;51.000;5.874;2023-05-27T08:24:44;18.20;;;17.20;;
11531;SDS011;5822;51.000;5.874;2023-05-27T08:27:13;18.00;;;17.00;;
11531;SDS011;5822;51.000;5.874;2023-05-27T08:29:43;18.27;;;17.23;;
11531;SDS011;5822;51.000;5.874;2023-05-27T08:32:09;17.15;;;16.15;;
11531;SDS011;5822;51.000;5.874;2023-05-27T08:34:35;18.05;;;16.95;;
11531;SDS011;5822;51.000;5.874;2023-05-27T08:37:04;18.33;;;17.23;;
11531;SDS011;5822;51.000;5.874;2023-05-27T08:39:30;18.13;;;17.13;;
11531;SDS011;5822;51.000;5.874;2023-05-27T08:41:56;18.20;;;17.10;;
11531;SDS011;5822;51.000;5.874;2023-05-27T08:44:23;18.40;;;17.30;;
11531;SDS011;5822;51.000;5.874;2023-05-27T08:46:49;18.00;;;17.00;;
11531;SDS011;5822;51.000;5.874;2023-05-27T08:49:16;17.75;;;16.75;;
11531;SDS011;5822;51.000;5.874;2023-05-27T08:51:42;18.25;;;17.17;;
11531;SDS011;5822;51.000;5.874;2023-05-27T08:54:10;18.13;;;17.13;;
11531;SDS011;5822;51.000;5.874;2023-05-27T08:56:36;17.98;;;16.90;;
11531;SDS011;5822;51.000;5.874;2023-05-27T08:59:03;18.77;;;17.58;;
11531;SDS011;5822;51.000;5.874;2023-05-27T09:01:29;18.15;;;17.05;;
11531;SDS011;5822;51.000;5.874;2023-05-27T09:03:55;19.05;;;17.75;;
11531;SDS011;5822;51.000;5.874;2023-05-27T09:06:21;18.08;;;17.02;;
11531;SDS011;5822;51.000;5.874;2023-05-27T09:08:47;17.98;;;16.98;;
11531;SDS011;5822;51.000;5.874;2023-05-27T09:11:22;17.70;;;16.60;;
11531;SDS011;5822;51.000;5.874;2023-05-27T09:13:50;18.60;;;17.40;;
11531;SDS011;5822;51.000;5.874;2023-05-27T09:16:20;17.60;;;16.60;;
11531;SDS011;5822;51.000;5.874;2023-05-27T09:18:46;17.25;;;16.25;;
11531;SDS011;5822;51.000;5.874;2023-05-27T09:21:13;17.67;;;16.57;;
11531;SDS011;5822;51.000;5.874;2023-05-27T09:23:39;17.40;;;16.40;;
11531;SDS011;5822;51.000;5.874;2023-05-27T09:26:08;17.77;;;16.67;;
11531;SDS011;5822;51.000;5.874;2023-05-27T09:28:37;17.53;;;16.50;;
11531;SDS011;5822;51.000;5.874;2023-05-27T09:31:08;18.17;;;17.08;;
11531;SDS011;5822;51.000;5.874;2023-05-27T09:33:35;17.70;;;16.60;;
11531;SDS011;5822;51.000;5.874;2023-05-27T09:36:04;17.20;;;16.30;;
11531;SDS011;5822;51.000;5.874;2023-05-27T09:38:31;17.27;;;16.27;;
11531;SDS011;5822;51.000;5.874;2023-05-27T09:40:58;17.13;;;16.17;;
11531;SDS011;5822;51.000;5.874;2023-05-27T09:43:25;17.30;;;16.30;;
11531;SDS011;5822;51.000;5.874;2023-05-27T09:45:58;17.20;;;16.20;;
11531;SDS011;5822;51.000;5.874;2023-05-27T09:48:32;17.40;;;16.40;;
11531;SDS011;5822;51.000;5.874;2023-05-27T09:50:58;18.17;;;17.17;;
11531;SDS011;5822;51.000;5.874;2023-05-27T09:53:25;18.80;;;17.70;;
11531;SDS011;5822;51.000;5.874;2023-05-27T09:55:52;18.05;;;17.05;;
11531;SDS011;5822;51.000;5.874;2023-05-27T09:58:20;17.40;;;16.40;;
11531;SDS011;5822;51.000;5.874;2023-05-27T10:00:47;17.33;;;16.33;;
11531;SDS011;5822;51.000;5.874;2023-05-27T10:03:16;17.33;;;16.33;;
11531;SDS011;5822;51.000;5.874;2023-05-27T10:05:45;17.25;;;16.25;;
11531;SDS011;5822;51.000;5.874;2023-05-27T10:08:13;17.92;;;16.80;;
11531;SDS011;5822;51.000;5.874;2023-05-27T10:10:39;17.52;;;16.52;;
11531;SDS011;5822;51.000;5.874;2023-05-27T10:13:05;16.88;;;15.98;;
11531;SDS011;5822;51.000;5.874;2023-05-27T10:15:32;17.10;;;16.10;;
11531;SDS011;5822;51.000;5.874;2023-05-27T10:18:00;16.90;;;16.00;;
11531;SDS011;5822;51.000;5.874;2023-05-27T10:20:38;17.35;;;16.35;;
11531;SDS011;5822;51.000;5.874;2023-05-27T10:23:51;16.80;;;15.90;;
11531;SDS011;5822;51.000;5.874;2023-05-27T10:26:00;16.70;;;15.80;;
11531;SDS011;5822;51.000;5.874;2023-05-27T10:28:31;16.73;;;15.82;;
11531;SDS011;5822;51.000;5.874;2023-05-27T10:31:06;16.47;;;15.57;;
11531;SDS011;5822;51.000;5.874;2023-05-27T10:33:49;16.80;;;15.80;;
11531;SDS011;5822;51.000;5.874;2023-05-27T10:36:22;18.02;;;16.92;;
11531;SDS011;5822;51.000;5.874;2023-05-27T10:38:54;18.23;;;17.05;;
11531;SDS011;5822;51.000;5.874;2023-05-27T10:41:28;17.33;;;16.30;;
11531;SDS011;5822;51.000;5.874;2023-05-27T10:44:02;17.00;;;16.00;;
11531;SDS011;5822;51.000;5.874;2023-05-27T10:46:37;17.30;;;16.37;;
11531;SDS011;5822;51.000;5.874;2023-05-27T10:49:11;17.95;;;16.88;;
11531;SDS011;5822;51.000;5.874;2023-05-27T10:51:42;17.20;;;16.20;;
11531;SDS011;5822;51.000;5.874;2023-05-27T10:54:08;17.20;;;16.30;;
11531;SDS011;5822;51.000;5.874;2023-05-27T10:56:34;17.10;;;16.20;;
11531;SDS011;5822;51.000;5.874;2023-05-27T10:59:00;17.60;;;16.60;;
11531;SDS011;5822;51.000;5.874;2023-05-27T11:01:31;16.88;;;15.98;;
11531;SDS011;5822;51.000;5.874;2023-05-27T11:03:58;17.00;;;16.10;;
11531;SDS011;5822;51.000;5.874;2023-05-27T11:06:24;16.70;;;15.80;;
11531;SDS011;5822;51.000;5.874;2023-05-27T11:08:49;17.48;;;16.48;;
11531;SDS011;5822;51.000;5.874;2023-05-27T11:11:15;17.25;;;16.25;;
11531;SDS011;5822;51.000;5.874;2023-05-27T11:13:42;16.58;;;15.68;;
11531;SDS011;5822;51.000;5.874;2023-05-27T11:16:08;16.60;;;15.70;;
11531;SDS011;5822;51.000;5.874;2023-05-27T11:21:08;17.40;;;16.40;;
11531;SDS011;5822;51.000;5.874;2023-05-27T11:23:39;17.10;;;16.20;;
11531;SDS011;5822;51.000;5.874;2023-05-27T11:26:20;18.27;;;17.25;;
11531;SDS011;5822;51.000;5.874;2023-05-27T11:31:18;18.85;;;17.75;;
11531;SDS011;5822;51.000;5.874;2023-05-27T11:33:45;17.35;;;16.45;;
11531;SDS011;5822;51.000;5.874;2023-05-27T11:36:16;16.95;;;16.05;;
11531;SDS011;5822;51.000;5.874;2023-05-27T11:39:00;17.50;;;16.60;;
11531;SDS011;5822;51.000;5.874;2023-05-27T11:41:27;17.93;;;16.93;;
11531;SDS011;5822;51.000;5.874;2023-05-27T11:43:57;16.85;;;15.95;;
11531;SDS011;5822;51.000;5.874;2023-05-27T11:46:37;16.48;;;15.60;;
11531;SDS011;5822;51.000;5.874;2023-05-27T11:49:07;16.55;;;15.65;;
11531;SDS011;5822;51.000;5.874;2023-05-27T11:51:39;17.20;;;16.30;;
11531;SDS011;5822;51.000;5.874;2023-05-27T11:54:14;16.60;;;15.70;;
11531;SDS011;5822;51.000;5.874;2023-05-27T11:56:49;17.63;;;16.58;;
11531;SDS011;5822;51.000;5.874;2023-05-27T11:59:17;17.20;;;16.20;;
11531;SDS011;5822;51.000;5.874;2023-05-27T12:01:43;17.35;;;16.35;;
11531;SDS011;5822;51.000;5.874;2023-05-27T12:04:09;17.33;;;16.42;;
11531;SDS011;5822;51.000;5.874;2023-05-27T12:06:36;17.23;;;16.33;;
11531;SDS011;5822;51.000;5.874;2023-05-27T12:09:09;17.00;;;16.10;;
11531;SDS011;5822;51.000;5.874;2023-05-27T12:11:35;17.47;;;16.50;;
11531;SDS011;5822;51.000;5.874;2023-05-27T12:14:01;17.30;;;16.40;;
11531;SDS011;5822;51.000;5.874;2023-05-27T12:16:28;17.42;;;16.48;;
11531;SDS011;5822;51.000;5.874;2023-05-27T12:18:53;16.70;;;15.80;;
11531;SDS011;5822;51.000;5.874;2023-05-27T12:21:19;16.40;;;15.60;;
11531;SDS011;5822;51.000;5.874;2023-05-27T12:23:45;16.58;;;15.70;;
11531;SDS011;5822;51.000;5.874;2023-05-27T12:26:12;16.00;;;15.20;;
11531;SDS011;5822;51.000;5.874;2023-05-27T12:28:39;16.20;;;15.40;;
11531;SDS011;5822;51.000;5.874;2023-05-27T12:31:05;17.83;;;16.83;;
11531;SDS011;5822;51.000;5.874;2023-05-27T12:33:31;17.10;;;16.20;;
11531;SDS011;5822;51.000;5.874;2023-05-27T12:35:57;16.60;;;15.80;;
11531;SDS011;5822;51.000;5.874;2023-05-27T12:38:23;16.50;;;15.70;;
11531;SDS011;5822;51.000;5.874;2023-05-27T12:40:49;16.90;;;16.00;;
11531;SDS011;5822;51.000;5.874;2023-05-27T12:43:15;17.17;;;16.27;;
11531;SDS011;5822;51.000;5.874;2023-05-27T12:45:40;16.15;;;15.35;;
11531;SDS011;5822;51.000;5.874;2023-05-27T12:48:06;16.57;;;15.77;;
11531;SDS011;5822;51.000;5.874;2023-05-27T12:50:32;16.33;;;15.52;;
11531;SDS011;5822;51.000;5.874;2023-05-27T12:53:00;16.90;;;16.00;;
11531;SDS011;5822;51.000;5.874;2023-05-27T12:55:28;16.73;;;15.82;;
11531;SDS011;5822;51.000;5.874;2023-05-27T12:57:54;16.83;;;15.93;;
11531;SDS011;5822;51.000;5.874;2023-05-27T13:00:20;17.20;;;16.20;;
11531;SDS011;5822;51.000;5.874;2023-05-27T13:02:47;17.20;;;16.30;;
11531;SDS011;5822;51.000;5.874;2023-05-27T13:05:13;16.90;;;16.00;;
11531;SDS011;5822;51.000;5.874;2023-05-27T13:07:39;17.00;;;16.10;;
11531;SDS011;5822;51.000;5.874;2023-05-27T13:10:06;16.53;;;15.67;;
11531;SDS011;5822;51.000;5.874;2023-05-27T13:12:36;16.33;;;15.52;;
11531;SDS011;5822;51.000;5.874;2023-05-27T13:15:02;16.40;;;15.50;;
11531;SDS011;5822;51.000;5.874;2023-05-27T13:17:32;16.30;;;15.50;;
11531;SDS011;5822;51.000;5.874;2023-05-27T13:19:58;16.30;;;15.50;;
11531;SDS011;5822;51.000;5.874;2023-05-27T13:22:24;16.45;;;15.57;;
11531;SDS011;5822;51.000;5.874;2023-05-27T13:24:50;16.80;;;15.90;;
11531;SDS011;5822;51.000;5.874;2023-05-27T13:27:16;16.07;;;15.20;;
11531;SDS011;5822;51.000;5.874;2023-05-27T13:29:42;15.93;;;15.13;;
11531;SDS011;5822;51.000;5.874;2023-05-27T13:32:07;15.90;;;15.10;;
11531;SDS011;5822;51.000;5.874;2023-05-27T13:34:33;15.80;;;15.00;;
11531;SDS011;5822;51.000;5.874;2023-05-27T13:36:59;15.83;;;14.93;;
11531;SDS011;5822;51.000;5.874;2023-05-27T13:39:27;15.82;;;15.02;;
11531;SDS011;5822;51.000;5.874;2023-05-27T13:41:53;15.60;;;14.80;;
11531;SDS011;5822;51.000;5.874;2023-05-27T13:44:18;15.80;;;15.00;;
11531;SDS011;5822;51.000;5.874;2023-05-27T13:46:44;16.30;;;15.50;;
11531;SDS011;5822;51.000;5.874;2023-05-27T13:49:10;17.00;;;16.00;;
11531;SDS011;5822;51.000;5.874;2023-05-27T13:51:42;16.30;;;15.50;;
11531;SDS011;5822;51.000;5.874;2023-05-27T13:54:09;15.80;;;15.00;;
11531;SDS011;5822;51.000;5.874;2023-05-27T13:56:35;16.02;;;15.23;;
11531;SDS011;5822;51.000;5.874;2023-05-27T13:59:00;16.00;;;15.20;;
11531;SDS011;5822;51.000;5.874;2023-05-27T14:01:30;16.52;;;15.63;;
11531;SDS011;5822;51.000;5.874;2023-05-27T14:03:56;16.40;;;15.50;;
11531;SDS011;5822;51.000;5.874;2023-05-27T14:06:21;16.40;;;15.60;;
11531;SDS011;5822;51.000;5.874;2023-05-27T14:08:47;16.85;;;15.95;;
11531;SDS011;5822;51.000;5.874;2023-05-27T14:11:13;17.00;;;16.10;;
11531;SDS011;5822;51.000;5.874;2023-05-27T14:13:39;16.77;;;15.88;;
11531;SDS011;5822;51.000;5.874;2023-05-27T14:16:06;16.08;;;15.27;;
11531;SDS011;5822;51.000;5.874;2023-05-27T14:18:31;15.68;;;14.88;;
11531;SDS011;5822;51.000;5.874;2023-05-27T14:20:57;15.60;;;14.80;;
11531;SDS011;5822;51.000;5.874;2023-05-27T14:23:23;15.90;;;15.10;;
11531;SDS011;5822;51.000;5.874;2023-05-27T14:25:49;16.42;;;15.63;;
11531;SDS011;5822;51.000;5.874;2023-05-27T14:28:14;17.23;;;16.33;;
11531;SDS011;5822;51.000;5.874;2023-05-27T14:30:40;17.40;;;16.50;;
11531;SDS011;5822;51.000;5.874;2023-05-27T14:33:06;17.73;;;16.83;;
11531;SDS011;5822;51.000;5.874;2023-05-27T14:35:35;17.08;;;16.23;;
11531;SDS011;5822;51.000;5.874;2023-05-27T14:38:02;17.23;;;16.33;;
11531;SDS011;5822;51.000;5.874;2023-05-27T14:40:28;17.20;;;16.30;;